sensor_id;sensor_type;location;lat;lon;timestamp;P1;P2;P0
63662;PMS5003;49815;51.618;0.336;2022-11-15T00:01:39;33;33;
63662;PMS5003;49815;51.618;0.336;2022-11-15T00:04:04;53;53;
63662;PMS5003;49815;51.618;0.336;2022-11-15T00:06:30;87;86;
63662;PMS5003;49815;51.618;0.336;2022-11-15T00:08:57;24;22;
63662;PMS5003;49815;51.618;0.336;2022-11-15T00:11:21;23;22;
63662;PMS5003;49815;51.618;0.336;2022-11-15T00:13:47;93;93;
63662;PMS5003;49815;51.618;0.336;2022-11-15T00:16:12;6;5;
63662;PMS5003;49815;51.618;0.336;2022-11-15T00:18:38;3;2;
63662;PMS5003;49815;51.618;0.336;2022-11-15T00:21:04;3;3;
63662;PMS5003;49815;51.618;0.336;2022-11-15T00:23:28;1;1;
63662;PMS5003;49815;51.618;0.336;2022-11-15T00:25:55;2;2;
63662;PMS5003;49815;51.618;0.336;2022-11-15T00:28:19;5;2;
63662;PMS5003;49815;51.618;0.336;2022-11-15T00:30:45;2;1;
63662;PMS5003;49815;51.618;0.336;2022-11-15T00:33:10;16;15;
63662;PMS5003;49815;51.618;0.336;2022-11-15T00:35:35;21;21;
63662;PMS5003;49815;51.618;0.336;2022-11-15T00:38:01;43;42;
63662;PMS5003;49815;51.618;0.336;2022-11-15T00:40:27;23;23;
63662;PMS5003;49815;51.618;0.336;2022-11-15T00:42:52;46;45;
63662;PMS5003;49815;51.618;0.336;2022-11-15T00:45:18;26;25;
63662;PMS5003;49815;51.618;0.336;2022-11-15T00:47:44;21;18;
63662;PMS5003;49815;51.618;0.336;2022-11-15T00:50:10;32;32;
63662;PMS5003;49815;51.618;0.336;2022-11-15T00:52:35;29;29;
63662;PMS5003;49815;51.618;0.336;2022-11-15T00:55:01;19;19;
63662;PMS5003;49815;51.618;0.336;2022-11-15T00:57:26;26;26;
63662;PMS5003;49815;51.618;0.336;2022-11-15T00:59:52;23;22;
63662;PMS5003;49815;51.618;0.336;2022-11-15T01:02:18;19;18;
63662;PMS5003;49815;51.618;0.336;2022-11-15T01:04:43;27;25;
63662;PMS5003;49815;51.618;0.336;2022-11-15T01:07:08;46;45;
63662;PMS5003;49815;51.618;0.336;2022-11-15T01:09:33;31;31;
63662;PMS5003;49815;51.618;0.336;2022-11-15T01:11:59;22;21;
63662;PMS5003;49815;51.618;0.336;2022-11-15T01:14:25;14;12;
63662;PMS5003;49815;51.618;0.336;2022-11-15T01:16:50;27;27;
63662;PMS5003;49815;51.618;0.336;2022-11-15T01:19:15;15;12;
63662;PMS5003;49815;51.618;0.336;2022-11-15T01:21:41;14;14;
63662;PMS5003;49815;51.618;0.336;2022-11-15T01:24:07;22;22;
63662;PMS5003;49815;51.618;0.336;2022-11-15T01:26:33;35;35;
63662;PMS5003;49815;51.618;0.336;2022-11-15T01:28:57;17;17;
63662;PMS5003;49815;51.618;0.336;2022-11-15T01:31:22;36;33;
63662;PMS5003;49815;51.618;0.336;2022-11-15T01:33:47;17;17;
63662;PMS5003;49815;51.618;0.336;2022-11-15T01:36:13;32;32;
63662;PMS5003;49815;51.618;0.336;2022-11-15T01:38:37;26;26;
63662;PMS5003;49815;51.618;0.336;2022-11-15T01:41:04;27;26;
63662;PMS5003;49815;51.618;0.336;2022-11-15T01:43:30;41;39;
63662;PMS5003;49815;51.618;0.336;2022-11-15T01:45:55;19;15;
63662;PMS5003;49815;51.618;0.336;2022-11-15T01:48:19;20;19;
63662;PMS5003;49815;51.618;0.336;2022-11-15T01:50:44;29;28;
63662;PMS5003;49815;51.618;0.336;2022-11-15T01:53:09;13;11;
63662;PMS5003;49815;51.618;0.336;2022-11-15T01:55:35;20;20;
63662;PMS5003;49815;51.618;0.336;2022-11-15T01:58:02;23;21;
63662;PMS5003;49815;51.618;0.336;2022-11-15T02:00:27;26;26;
63662;PMS5003;49815;51.618;0.336;2022-11-15T02:02:52;15;15;
63662;PMS5003;49815;51.618;0.336;2022-11-15T02:05:18;25;25;
63662;PMS5003;49815;51.618;0.336;2022-11-15T02:07:44;11;11;
63662;PMS5003;49815;51.618;0.336;2022-11-15T02:10:12;18;18;
63662;PMS5003;49815;51.618;0.336;2022-11-15T02:12:35;23;23;
63662;PMS5003;49815;51.618;0.336;2022-11-15T02:15:01;13;12;
63662;PMS5003;49815;51.618;0.336;2022-11-15T02:17:31;34;34;
63662;PMS5003;49815;51.618;0.336;2022-11-15T02:20:03;17;17;
63662;PMS5003;49815;51.618;0.336;2022-11-15T02:22:21;26;26;
63662;PMS5003;49815;51.618;0.336;2022-11-15T02:24:48;18;14;
63662;PMS5003;49815;51.618;0.336;2022-11-15T02:27:16;45;45;
63662;PMS5003;49815;51.618;0.336;2022-11-15T02:29:37;64;64;
63662;PMS5003;49815;51.618;0.336;2022-11-15T02:31:59;67;65;
63662;PMS5003;49815;51.618;0.336;2022-11-15T02:34:25;50;45;
63662;PMS5003;49815;51.618;0.336;2022-11-15T02:36:52;54;54;
63662;PMS5003;49815;51.618;0.336;2022-11-15T02:39:17;57;57;
63662;PMS5003;49815;51.618;0.336;2022-11-15T02:41:41;28;28;
63662;PMS5003;49815;51.618;0.336;2022-11-15T02:44:07;32;32;
63662;PMS5003;49815;51.618;0.336;2022-11-15T02:46:32;25;25;
63662;PMS5003;49815;51.618;0.336;2022-11-15T02:48:55;2;2;
63662;PMS5003;49815;51.618;0.336;2022-11-15T02:51:21;5;3;
63662;PMS5003;49815;51.618;0.336;2022-11-15T02:53:46;2;2;
63662;PMS5003;49815;51.618;0.336;2022-11-15T02:56:12;5;2;
63662;PMS5003;49815;51.618;0.336;2022-11-15T02:58:45;2;2;
63662;PMS5003;49815;51.618;0.336;2022-11-15T03:01:04;7;4;
63662;PMS5003;49815;51.618;0.336;2022-11-15T03:03:31;4;2;
63662;PMS5003;49815;51.618;0.336;2022-11-15T03:05:56;5;2;
63662;PMS5003;49815;51.618;0.336;2022-11-15T03:08:21;3;3;
63662;PMS5003;49815;51.618;0.336;2022-11-15T03:10:46;2;2;
63662;PMS5003;49815;51.618;0.336;2022-11-15T03:13:13;7;3;
63662;PMS5003;49815;51.618;0.336;2022-11-15T03:15:36;2;1;
63662;PMS5003;49815;51.618;0.336;2022-11-15T03:18:02;1;1;
63662;PMS5003;49815;51.618;0.336;2022-11-15T03:20:27;3;3;
63662;PMS5003;49815;51.618;0.336;2022-11-15T03:22:52;6;6;
63662;PMS5003;49815;51.618;0.336;2022-11-15T03:25:18;5;2;
63662;PMS5003;49815;51.618;0.336;2022-11-15T03:27:44;4;3;
63662;PMS5003;49815;51.618;0.336;2022-11-15T03:30:08;1;1;
63662;PMS5003;49815;51.618;0.336;2022-11-15T03:32:34;1;1;
63662;PMS5003;49815;51.618;0.336;2022-11-15T03:35:00;3;2;
63662;PMS5003;49815;51.618;0.336;2022-11-15T03:37:25;3;2;
63662;PMS5003;49815;51.618;0.336;2022-11-15T03:39:50;1;1;
63662;PMS5003;49815;51.618;0.336;2022-11-15T03:42:18;2;2;
63662;PMS5003;49815;51.618;0.336;2022-11-15T03:44:42;2;2;
63662;PMS5003;49815;51.618;0.336;2022-11-15T03:47:07;2;1;
63662;PMS5003;49815;51.618;0.336;2022-11-15T03:49:32;1;1;
63662;PMS5003;49815;51.618;0.336;2022-11-15T03:51:57;3;1;
63662;PMS5003;49815;51.618;0.336;2022-11-15T03:54:22;3;3;
63662;PMS5003;49815;51.618;0.336;2022-11-15T03:56:48;2;2;
63662;PMS5003;49815;51.618;0.336;2022-11-15T03:59:13;5;5;
63662;PMS5003;49815;51.618;0.336;2022-11-15T04:01:39;4;3;
63662;PMS5003;49815;51.618;0.336;2022-11-15T04:04:04;4;3;
63662;PMS5003;49815;51.618;0.336;2022-11-15T04:06:29;3;1;
63662;PMS5003;49815;51.618;0.336;2022-11-15T04:08:55;10;8;
63662;PMS5003;49815;51.618;0.336;2022-11-15T04:11:20;3;2;
63662;PMS5003;49815;51.618;0.336;2022-11-15T04:13:45;5;3;
63662;PMS5003;49815;51.618;0.336;2022-11-15T04:16:11;3;3;
63662;PMS5003;49815;51.618;0.336;2022-11-15T04:18:36;4;3;
63662;PMS5003;49815;51.618;0.336;2022-11-15T04:21:01;5;3;
63662;PMS5003;49815;51.618;0.336;2022-11-15T04:23:27;3;2;
63662;PMS5003;49815;51.618;0.336;2022-11-15T04:25:53;5;4;
63662;PMS5003;49815;51.618;0.336;2022-11-15T04:28:18;8;4;
63662;PMS5003;49815;51.618;0.336;2022-11-15T04:30:43;4;4;
63662;PMS5003;49815;51.618;0.336;2022-11-15T04:33:09;4;3;
63662;PMS5003;49815;51.618;0.336;2022-11-15T04:35:34;5;3;
63662;PMS5003;49815;51.618;0.336;2022-11-15T04:38:00;2;2;
63662;PMS5003;49815;51.618;0.336;2022-11-15T04:40:25;2;2;
63662;PMS5003;49815;51.618;0.336;2022-11-15T04:42:50;5;2;
63662;PMS5003;49815;51.618;0.336;2022-11-15T04:45:16;2;2;
63662;PMS5003;49815;51.618;0.336;2022-11-15T04:47:42;3;2;
63662;PMS5003;49815;51.618;0.336;2022-11-15T04:50:07;5;3;
63662;PMS5003;49815;51.618;0.336;2022-11-15T04:52:32;3;3;
63662;PMS5003;49815;51.618;0.336;2022-11-15T04:54:58;4;4;
63662;PMS5003;49815;51.618;0.336;2022-11-15T04:57:23;2;1;
63662;PMS5003;49815;51.618;0.336;2022-11-15T04:59:49;2;2;
63662;PMS5003;49815;51.618;0.336;2022-11-15T05:02:14;28;27;
63662;PMS5003;49815;51.618;0.336;2022-11-15T05:04:39;58;55;
63662;PMS5003;49815;51.618;0.336;2022-11-15T05:07:05;40;36;
63662;PMS5003;49815;51.618;0.336;2022-11-15T05:09:30;26;24;
63662;PMS5003;49815;51.618;0.336;2022-11-15T05:11:56;8;8;
63662;PMS5003;49815;51.618;0.336;2022-11-15T05:14:21;11;10;
63662;PMS5003;49815;51.618;0.336;2022-11-15T05:16:47;11;9;
63662;PMS5003;49815;51.618;0.336;2022-11-15T05:19:12;11;9;
63662;PMS5003;49815;51.618;0.336;2022-11-15T05:21:37;12;10;
63662;PMS5003;49815;51.618;0.336;2022-11-15T05:24:03;9;9;
63662;PMS5003;49815;51.618;0.336;2022-11-15T05:26:28;13;12;
63662;PMS5003;49815;51.618;0.336;2022-11-15T05:28:54;8;7;
63662;PMS5003;49815;51.618;0.336;2022-11-15T05:31:19;21;18;
63662;PMS5003;49815;51.618;0.336;2022-11-15T05:33:45;8;7;
63662;PMS5003;49815;51.618;0.336;2022-11-15T05:36:12;9;9;
63662;PMS5003;49815;51.618;0.336;2022-11-15T05:38:35;13;11;
63662;PMS5003;49815;51.618;0.336;2022-11-15T05:41:01;11;8;
63662;PMS5003;49815;51.618;0.336;2022-11-15T05:43:26;8;5;
63662;PMS5003;49815;51.618;0.336;2022-11-15T05:45:51;5;5;
63662;PMS5003;49815;51.618;0.336;2022-11-15T05:48:16;7;5;
63662;PMS5003;49815;51.618;0.336;2022-11-15T05:50:43;7;4;
63662;PMS5003;49815;51.618;0.336;2022-11-15T05:53:07;5;4;
63662;PMS5003;49815;51.618;0.336;2022-11-15T05:55:33;8;4;
63662;PMS5003;49815;51.618;0.336;2022-11-15T05:57:58;4;4;
63662;PMS5003;49815;51.618;0.336;2022-11-15T06:00:23;5;3;
63662;PMS5003;49815;51.618;0.336;2022-11-15T06:02:48;2;2;
63662;PMS5003;49815;51.618;0.336;2022-11-15T06:05:14;3;2;
63662;PMS5003;49815;51.618;0.336;2022-11-15T06:07:39;4;2;
63662;PMS5003;49815;51.618;0.336;2022-11-15T06:10:05;4;2;
63662;PMS5003;49815;51.618;0.336;2022-11-15T06:12:30;3;2;
63662;PMS5003;49815;51.618;0.336;2022-11-15T06:14:55;5;3;
63662;PMS5003;49815;51.618;0.336;2022-11-15T06:17:20;3;2;
63662;PMS5003;49815;51.618;0.336;2022-11-15T06:19:46;3;2;
63662;PMS5003;49815;51.618;0.336;2022-11-15T06:22:11;1;1;
63662;PMS5003;49815;51.618;0.336;2022-11-15T06:24:36;5;3;
63662;PMS5003;49815;51.618;0.336;2022-11-15T06:27:02;6;3;
63662;PMS5003;49815;51.618;0.336;2022-11-15T06:29:27;6;4;
63662;PMS5003;49815;51.618;0.336;2022-11-15T06:31:53;3;3;
63662;PMS5003;49815;51.618;0.336;2022-11-15T06:34:18;6;3;
63662;PMS5003;49815;51.618;0.336;2022-11-15T06:36:43;2;2;
63662;PMS5003;49815;51.618;0.336;2022-11-15T06:39:09;4;3;
63662;PMS5003;49815;51.618;0.336;2022-11-15T06:41:34;4;4;
63662;PMS5003;49815;51.618;0.336;2022-11-15T06:44:00;3;1;
63662;PMS5003;49815;51.618;0.336;2022-11-15T06:46:25;4;2;
63662;PMS5003;49815;51.618;0.336;2022-11-15T06:48:50;6;4;
63662;PMS5003;49815;51.618;0.336;2022-11-15T06:51:16;7;2;
63662;PMS5003;49815;51.618;0.336;2022-11-15T06:53:41;4;4;
63662;PMS5003;49815;51.618;0.336;2022-11-15T06:56:07;3;3;
63662;PMS5003;49815;51.618;0.336;2022-11-15T06:58:32;5;2;
63662;PMS5003;49815;51.618;0.336;2022-11-15T07:00:59;4;2;
63662;PMS5003;49815;51.618;0.336;2022-11-15T07:03:23;3;3;
63662;PMS5003;49815;51.618;0.336;2022-11-15T07:05:52;4;2;
63662;PMS5003;49815;51.618;0.336;2022-11-15T07:08:14;6;6;
63662;PMS5003;49815;51.618;0.336;2022-11-15T07:10:39;6;3;
63662;PMS5003;49815;51.618;0.336;2022-11-15T07:13:05;3;2;
63662;PMS5003;49815;51.618;0.336;2022-11-15T07:15:30;5;4;
63662;PMS5003;49815;51.618;0.336;2022-11-15T07:17:56;2;2;
63662;PMS5003;49815;51.618;0.336;2022-11-15T07:20:21;7;6;
63662;PMS5003;49815;51.618;0.336;2022-11-15T07:22:46;3;3;
63662;PMS5003;49815;51.618;0.336;2022-11-15T07:25:12;4;3;
63662;PMS5003;49815;51.618;0.336;2022-11-15T07:27:37;5;3;
63662;PMS5003;49815;51.618;0.336;2022-11-15T07:30:03;7;4;
63662;PMS5003;49815;51.618;0.336;2022-11-15T07:32:27;7;2;
63662;PMS5003;49815;51.618;0.336;2022-11-15T07:34:53;10;4;
63662;PMS5003;49815;51.618;0.336;2022-11-15T07:37:18;5;5;
63662;PMS5003;49815;51.618;0.336;2022-11-15T07:39:43;3;3;
63662;PMS5003;49815;51.618;0.336;2022-11-15T07:42:09;5;5;
63662;PMS5003;49815;51.618;0.336;2022-11-15T07:44:34;3;3;
63662;PMS5003;49815;51.618;0.336;2022-11-15T07:47:00;11;7;
63662;PMS5003;49815;51.618;0.336;2022-11-15T07:49:25;5;4;
63662;PMS5003;49815;51.618;0.336;2022-11-15T07:51:50;6;3;
63662;PMS5003;49815;51.618;0.336;2022-11-15T07:54:16;5;5;
63662;PMS5003;49815;51.618;0.336;2022-11-15T07:56:41;5;4;
63662;PMS5003;49815;51.618;0.336;2022-11-15T07:59:06;3;3;
63662;PMS5003;49815;51.618;0.336;2022-11-15T08:01:32;5;5;
63662;PMS5003;49815;51.618;0.336;2022-11-15T08:03:57;3;3;
63662;PMS5003;49815;51.618;0.336;2022-11-15T08:06:23;7;5;
63662;PMS5003;49815;51.618;0.336;2022-11-15T08:08:48;4;3;
63662;PMS5003;49815;51.618;0.336;2022-11-15T08:11:13;6;3;
63662;PMS5003;49815;51.618;0.336;2022-11-15T08:13:39;7;4;
63662;PMS5003;49815;51.618;0.336;2022-11-15T08:16:04;5;4;
63662;PMS5003;49815;51.618;0.336;2022-11-15T08:18:29;12;10;
63662;PMS5003;49815;51.618;0.336;2022-11-15T08:20:58;6;4;
63662;PMS5003;49815;51.618;0.336;2022-11-15T08:23:20;7;6;
63662;PMS5003;49815;51.618;0.336;2022-11-15T08:25:45;6;5;
63662;PMS5003;49815;51.618;0.336;2022-11-15T08:28:10;5;3;
63662;PMS5003;49815;51.618;0.336;2022-11-15T08:30:36;8;6;
63662;PMS5003;49815;51.618;0.336;2022-11-15T08:33:01;7;4;
63662;PMS5003;49815;51.618;0.336;2022-11-15T08:35:26;8;5;
63662;PMS5003;49815;51.618;0.336;2022-11-15T08:37:52;7;5;
63662;PMS5003;49815;51.618;0.336;2022-11-15T08:40:17;5;5;
63662;PMS5003;49815;51.618;0.336;2022-11-15T08:42:43;8;6;
63662;PMS5003;49815;51.618;0.336;2022-11-15T08:45:08;10;6;
63662;PMS5003;49815;51.618;0.336;2022-11-15T08:47:34;8;6;
63662;PMS5003;49815;51.618;0.336;2022-11-15T08:49:59;12;10;
63662;PMS5003;49815;51.618;0.336;2022-11-15T08:52:24;9;9;
63662;PMS5003;49815;51.618;0.336;2022-11-15T08:54:50;13;10;
63662;PMS5003;49815;51.618;0.336;2022-11-15T08:57:15;10;7;
63662;PMS5003;49815;51.618;0.336;2022-11-15T08:59:40;6;6;
63662;PMS5003;49815;51.618;0.336;2022-11-15T09:02:06;7;6;
63662;PMS5003;49815;51.618;0.336;2022-11-15T09:04:31;6;6;
63662;PMS5003;49815;51.618;0.336;2022-11-15T09:06:57;7;5;
63662;PMS5003;49815;51.618;0.336;2022-11-15T09:09:22;6;6;
63662;PMS5003;49815;51.618;0.336;2022-11-15T09:11:47;7;6;
63662;PMS5003;49815;51.618;0.336;2022-11-15T09:14:13;6;5;
63662;PMS5003;49815;51.618;0.336;2022-11-15T09:16:38;6;5;
63662;PMS5003;49815;51.618;0.336;2022-11-15T09:19:03;7;6;
63662;PMS5003;49815;51.618;0.336;2022-11-15T09:21:28;6;5;
63662;PMS5003;49815;51.618;0.336;2022-11-15T09:23:54;6;6;
63662;PMS5003;49815;51.618;0.336;2022-11-15T09:26:19;6;4;
63662;PMS5003;49815;51.618;0.336;2022-11-15T09:28:44;6;5;
63662;PMS5003;49815;51.618;0.336;2022-11-15T09:31:10;5;5;
63662;PMS5003;49815;51.618;0.336;2022-11-15T09:33:35;4;4;
63662;PMS5003;49815;51.618;0.336;2022-11-15T09:36:00;3;3;
63662;PMS5003;49815;51.618;0.336;2022-11-15T09:38:26;5;5;
63662;PMS5003;49815;51.618;0.336;2022-11-15T09:40:52;8;4;
63662;PMS5003;49815;51.618;0.336;2022-11-15T09:45:43;6;4;
63662;PMS5003;49815;51.618;0.336;2022-11-15T09:48:17;5;5;
63662;PMS5003;49815;51.618;0.336;2022-11-15T09:50:36;7;6;
63662;PMS5003;49815;51.618;0.336;2022-11-15T09:52:58;4;4;
63662;PMS5003;49815;51.618;0.336;2022-11-15T09:55:26;7;6;
63662;PMS5003;49815;51.618;0.336;2022-11-15T09:57:50;4;4;
63662;PMS5003;49815;51.618;0.336;2022-11-15T10:00:16;3;3;
63662;PMS5003;49815;51.618;0.336;2022-11-15T10:02:46;3;2;
63662;PMS5003;49815;51.618;0.336;2022-11-15T10:05:06;5;3;
63662;PMS5003;49815;51.618;0.336;2022-11-15T10:07:31;3;3;
63662;PMS5003;49815;51.618;0.336;2022-11-15T10:09:56;3;3;
63662;PMS5003;49815;51.618;0.336;2022-11-15T10:12:21;3;3;
63662;PMS5003;49815;51.618;0.336;2022-11-15T10:14:46;4;2;
63662;PMS5003;49815;51.618;0.336;2022-11-15T10:19:39;4;2;
63662;PMS5003;49815;51.618;0.336;2022-11-15T10:22:06;2;2;
63662;PMS5003;49815;51.618;0.336;2022-11-15T10:24:28;1;1;
63662;PMS5003;49815;51.618;0.336;2022-11-15T10:26:53;1;1;
63662;PMS5003;49815;51.618;0.336;2022-11-15T10:29:19;1;1;
63662;PMS5003;49815;51.618;0.336;2022-11-15T10:31:44;6;1;
63662;PMS5003;49815;51.618;0.336;2022-11-15T10:34:11;1;1;
63662;PMS5003;49815;51.618;0.336;2022-11-15T10:36:34;2;2;
63662;PMS5003;49815;51.618;0.336;2022-11-15T10:39:00;1;1;
63662;PMS5003;49815;51.618;0.336;2022-11-15T10:41:32;1;1;
63662;PMS5003;49815;51.618;0.336;2022-11-15T10:46:18;1;1;
63662;PMS5003;49815;51.618;0.336;2022-11-15T10:48:41;1;1;
63662;PMS5003;49815;51.618;0.336;2022-11-15T10:51:06;2;2;
63662;PMS5003;49815;51.618;0.336;2022-11-15T10:53:33;2;1;
63662;PMS5003;49815;51.618;0.336;2022-11-15T10:55:59;1;1;
63662;PMS5003;49815;51.618;0.336;2022-11-15T10:58:28;2;1;
63662;PMS5003;49815;51.618;0.336;2022-11-15T11:00:48;2;2;
63662;PMS5003;49815;51.618;0.336;2022-11-15T11:05:39;4;2;
63662;PMS5003;49815;51.618;0.336;2022-11-15T11:08:05;2;2;
63662;PMS5003;49815;51.618;0.336;2022-11-15T11:10:30;3;2;
63662;PMS5003;49815;51.618;0.336;2022-11-15T11:12:55;2;2;
63662;PMS5003;49815;51.618;0.336;2022-11-15T11:15:20;3;1;
63662;PMS5003;49815;51.618;0.336;2022-11-15T11:17:51;3;1;
63662;PMS5003;49815;51.618;0.336;2022-11-15T11:20:14;1;1;
63662;PMS5003;49815;51.618;0.336;2022-11-15T11:22:39;2;2;
63662;PMS5003;49815;51.618;0.336;2022-11-15T11:25:04;2;2;
63662;PMS5003;49815;51.618;0.336;2022-11-15T11:27:31;2;2;
63662;PMS5003;49815;51.618;0.336;2022-11-15T11:29:57;2;2;
63662;PMS5003;49815;51.618;0.336;2022-11-15T11:32:22;1;1;
63662;PMS5003;49815;51.618;0.336;2022-11-15T11:34:45;2;1;
63662;PMS5003;49815;51.618;0.336;2022-11-15T11:37:11;1;1;
63662;PMS5003;49815;51.618;0.336;2022-11-15T11:39:38;3;3;
63662;PMS5003;49815;51.618;0.336;2022-11-15T11:42:02;1;1;
63662;PMS5003;49815;51.618;0.336;2022-11-15T11:44:28;3;3;
63662;PMS5003;49815;51.618;0.336;2022-11-15T11:46:53;5;5;
63662;PMS5003;49815;51.618;0.336;2022-11-15T11:49:16;2;2;
63662;PMS5003;49815;51.618;0.336;2022-11-15T11:51:41;2;2;
63662;PMS5003;49815;51.618;0.336;2022-11-15T11:54:10;3;1;
63662;PMS5003;49815;51.618;0.336;2022-11-15T11:56:31;3;1;
63662;PMS5003;49815;51.618;0.336;2022-11-15T11:58:57;4;4;
63662;PMS5003;49815;51.618;0.336;2022-11-15T12:01:23;3;2;
63662;PMS5003;49815;51.618;0.336;2022-11-15T12:03:48;2;2;
63662;PMS5003;49815;51.618;0.336;2022-11-15T12:06:16;3;2;
63662;PMS5003;49815;51.618;0.336;2022-11-15T12:08:40;2;2;
63662;PMS5003;49815;51.618;0.336;2022-11-15T12:11:06;4;0;
63662;PMS5003;49815;51.618;0.336;2022-11-15T12:13:29;1;1;
63662;PMS5003;49815;51.618;0.336;2022-11-15T12:15:56;2;2;
63662;PMS5003;49815;51.618;0.336;2022-11-15T12:18:19;1;1;
63662;PMS5003;49815;51.618;0.336;2022-11-15T12:20:49;1;1;
63662;PMS5003;49815;51.618;0.336;2022-11-15T12:23:11;1;1;
63662;PMS5003;49815;51.618;0.336;2022-11-15T12:25:36;1;1;
63662;PMS5003;49815;51.618;0.336;2022-11-15T12:28:01;1;1;
63662;PMS5003;49815;51.618;0.336;2022-11-15T12:30:27;2;2;
63662;PMS5003;49815;51.618;0.336;2022-11-15T12:32:52;0;0;
63662;PMS5003;49815;51.618;0.336;2022-11-15T12:35:21;3;2;
63662;PMS5003;49815;51.618;0.336;2022-11-15T12:42:35;1;1;
63662;PMS5003;49815;51.618;0.336;2022-11-15T12:44:59;0;0;
63662;PMS5003;49815;51.618;0.336;2022-11-15T12:47:24;1;1;
63662;PMS5003;49815;51.618;0.336;2022-11-15T12:49:49;1;1;
63662;PMS5003;49815;51.618;0.336;2022-11-15T12:52:15;2;2;
63662;PMS5003;49815;51.618;0.336;2022-11-15T12:54:50;1;1;
63662;PMS5003;49815;51.618;0.336;2022-11-15T13:01:57;3;1;
63662;PMS5003;49815;51.618;0.336;2022-11-15T13:04:22;1;1;
63662;PMS5003;49815;51.618;0.336;2022-11-15T13:06:48;2;2;
63662;PMS5003;49815;51.618;0.336;2022-11-15T13:11:43;4;1;
63662;PMS5003;49815;51.618;0.336;2022-11-15T13:14:03;2;0;
63662;PMS5003;49815;51.618;0.336;2022-11-15T13:16:28;4;2;
63662;PMS5003;49815;51.618;0.336;2022-11-15T13:18:53;3;1;
63662;PMS5003;49815;51.618;0.336;2022-11-15T13:21:20;1;1;
63662;PMS5003;49815;51.618;0.336;2022-11-15T13:23:44;2;0;
63662;PMS5003;49815;51.618;0.336;2022-11-15T13:26:10;1;1;
63662;PMS5003;49815;51.618;0.336;2022-11-15T13:28:36;0;0;
63662;PMS5003;49815;51.618;0.336;2022-11-15T13:31:00;3;2;
63662;PMS5003;49815;51.618;0.336;2022-11-15T13:33:25;1;1;
63662;PMS5003;49815;51.618;0.336;2022-11-15T13:35:51;0;0;
63662;PMS5003;49815;51.618;0.336;2022-11-15T13:38:18;2;2;
63662;PMS5003;49815;51.618;0.336;2022-11-15T13:40:41;2;2;
63662;PMS5003;49815;51.618;0.336;2022-11-15T13:45:32;3;1;
63662;PMS5003;49815;51.618;0.336;2022-11-15T13:47:57;1;1;
63662;PMS5003;49815;51.618;0.336;2022-11-15T13:50:24;1;1;
63662;PMS5003;49815;51.618;0.336;2022-11-15T13:52:48;2;2;
63662;PMS5003;49815;51.618;0.336;2022-11-15T13:55:16;0;0;
63662;PMS5003;49815;51.618;0.336;2022-11-15T13:57:40;1;1;
63662;PMS5003;49815;51.618;0.336;2022-11-15T14:00:05;0;0;
63662;PMS5003;49815;51.618;0.336;2022-11-15T14:02:30;2;2;
63662;PMS5003;49815;51.618;0.336;2022-11-15T14:04:55;1;1;
63662;PMS5003;49815;51.618;0.336;2022-11-15T14:07:20;1;1;
63662;PMS5003;49815;51.618;0.336;2022-11-15T14:09:45;1;1;
63662;PMS5003;49815;51.618;0.336;2022-11-15T14:14:36;1;1;
63662;PMS5003;49815;51.618;0.336;2022-11-15T14:17:01;2;2;
63662;PMS5003;49815;51.618;0.336;2022-11-15T14:19:35;1;1;
63662;PMS5003;49815;51.618;0.336;2022-11-15T14:24:17;0;0;
63662;PMS5003;49815;51.618;0.336;2022-11-15T14:26:42;2;1;
63662;PMS5003;49815;51.618;0.336;2022-11-15T14:31:32;2;1;
63662;PMS5003;49815;51.618;0.336;2022-11-15T14:33:57;1;0;
63662;PMS5003;49815;51.618;0.336;2022-11-15T14:36:23;2;2;
63662;PMS5003;49815;51.618;0.336;2022-11-15T14:38:48;1;1;
63662;PMS5003;49815;51.618;0.336;2022-11-15T14:41:17;3;2;
63662;PMS5003;49815;51.618;0.336;2022-11-15T14:43:39;5;3;
63662;PMS5003;49815;51.618;0.336;2022-11-15T14:46:05;2;2;
63662;PMS5003;49815;51.618;0.336;2022-11-15T14:48:30;2;1;
63662;PMS5003;49815;51.618;0.336;2022-11-15T14:50:56;6;2;
63662;PMS5003;49815;51.618;0.336;2022-11-15T14:53:20;3;3;
63662;PMS5003;49815;51.618;0.336;2022-11-15T14:55:46;3;3;
63662;PMS5003;49815;51.618;0.336;2022-11-15T14:58:11;4;3;
63662;PMS5003;49815;51.618;0.336;2022-11-15T15:00:37;3;1;
63662;PMS5003;49815;51.618;0.336;2022-11-15T15:03:03;6;4;
63662;PMS5003;49815;51.618;0.336;2022-11-15T15:05:30;3;3;
63662;PMS5003;49815;51.618;0.336;2022-11-15T15:07:53;5;4;
63662;PMS5003;49815;51.618;0.336;2022-11-15T15:10:18;5;4;
63662;PMS5003;49815;51.618;0.336;2022-11-15T15:12:43;6;5;
63662;PMS5003;49815;51.618;0.336;2022-11-15T15:15:12;9;7;
63662;PMS5003;49815;51.618;0.336;2022-11-15T15:17:34;7;7;
63662;PMS5003;49815;51.618;0.336;2022-11-15T15:19:59;6;5;
63662;PMS5003;49815;51.618;0.336;2022-11-15T15:22:25;6;6;
63662;PMS5003;49815;51.618;0.336;2022-11-15T15:24:50;10;8;
63662;PMS5003;49815;51.618;0.336;2022-11-15T15:27:15;8;5;
63662;PMS5003;49815;51.618;0.336;2022-11-15T15:29:41;5;5;
63662;PMS5003;49815;51.618;0.336;2022-11-15T15:32:06;8;6;
63662;PMS5003;49815;51.618;0.336;2022-11-15T15:34:32;5;5;
63662;PMS5003;49815;51.618;0.336;2022-11-15T15:37:08;6;6;
63662;PMS5003;49815;51.618;0.336;2022-11-15T15:39:23;6;6;
63662;PMS5003;49815;51.618;0.336;2022-11-15T15:41:48;9;6;
63662;PMS5003;49815;51.618;0.336;2022-11-15T15:44:13;6;5;
63662;PMS5003;49815;51.618;0.336;2022-11-15T15:46:38;6;5;
63662;PMS5003;49815;51.618;0.336;2022-11-15T15:49:03;5;5;
63662;PMS5003;49815;51.618;0.336;2022-11-15T15:51:28;2;2;
63662;PMS5003;49815;51.618;0.336;2022-11-15T15:53:53;3;1;
63662;PMS5003;49815;51.618;0.336;2022-11-15T15:56:19;6;2;
63662;PMS5003;49815;51.618;0.336;2022-11-15T15:58:44;6;4;
63662;PMS5003;49815;51.618;0.336;2022-11-15T16:01:10;3;3;
63662;PMS5003;49815;51.618;0.336;2022-11-15T16:03:35;4;2;
63662;PMS5003;49815;51.618;0.336;2022-11-15T16:06:00;3;3;
63662;PMS5003;49815;51.618;0.336;2022-11-15T16:08:26;3;3;
63662;PMS5003;49815;51.618;0.336;2022-11-15T16:10:51;3;2;
63662;PMS5003;49815;51.618;0.336;2022-11-15T16:13:17;4;1;
63662;PMS5003;49815;51.618;0.336;2022-11-15T16:15:42;5;3;
63662;PMS5003;49815;51.618;0.336;2022-11-15T16:18:09;10;4;
63662;PMS5003;49815;51.618;0.336;2022-11-15T16:20:34;4;3;
63662;PMS5003;49815;51.618;0.336;2022-11-15T16:22:58;5;3;
63662;PMS5003;49815;51.618;0.336;2022-11-15T16:25:23;5;2;
63662;PMS5003;49815;51.618;0.336;2022-11-15T16:27:49;3;2;
63662;PMS5003;49815;51.618;0.336;2022-11-15T16:30:15;5;2;
63662;PMS5003;49815;51.618;0.336;2022-11-15T16:32:39;2;2;
63662;PMS5003;49815;51.618;0.336;2022-11-15T16:35:05;3;3;
63662;PMS5003;49815;51.618;0.336;2022-11-15T16:37:30;4;2;
63662;PMS5003;49815;51.618;0.336;2022-11-15T16:39:55;4;3;
63662;PMS5003;49815;51.618;0.336;2022-11-15T16:42:21;4;1;
63662;PMS5003;49815;51.618;0.336;2022-11-15T16:44:46;1;1;
63662;PMS5003;49815;51.618;0.336;2022-11-15T16:47:15;3;2;
63662;PMS5003;49815;51.618;0.336;2022-11-15T16:49:37;3;3;
63662;PMS5003;49815;51.618;0.336;2022-11-15T16:52:02;1;1;
63662;PMS5003;49815;51.618;0.336;2022-11-15T16:54:28;4;3;
63662;PMS5003;49815;51.618;0.336;2022-11-15T16:56:53;9;4;
63662;PMS5003;49815;51.618;0.336;2022-11-15T16:59:18;2;2;
63662;PMS5003;49815;51.618;0.336;2022-11-15T17:01:44;8;4;
63662;PMS5003;49815;51.618;0.336;2022-11-15T17:04:09;3;3;